Time;durP1;ratioP1;P1;durP2;ratioP2;P2;SDS_P1;SDS_P2;PMS_P1;PMS_P2;Temp;Humidity;BMP_temperature;BMP_pressure;BME280_temperature;BME280_humidity;BME280_pressure;Samples;Min_cycle;Max_cycle;Signal;HPM_P1;HPM_P2
2021/05/12 04:46:31;;;;;;;6.22;4.55;;;;;;;;;;6254367;22;883500;-79
2021/05/12 04:48:57;;;;;;;6.47;4.50;;;;;;;;;;6310516;22;20106;-80
2021/05/12 04:51:22;;;;;;;7.60;5.10;;;;;;;;;;6310207;22;20027;-80
2021/05/12 04:53:49;;;;;;;8.05;5.80;;;;;;;;;;6310039;22;20027;-80
2021/05/12 04:56:15;;;;;;;10.90;6.22;;;;;;;;;;6295380;22;20426;-79
2021/05/12 04:58:41;;;;;;;12.60;5.97;;;;;;;;;;6289046;22;20452;-79
2021/05/12 05:01:07;;;;;;;12.13;4.88;;;;;;;;;;6249869;22;20011;-78
2021/05/12 05:03:35;;;;;;;8.30;4.30;;;;;;;;;;6249548;22;19999;-79
2021/05/12 05:06:00;;;;;;;8.27;4.28;;;;;;;;;;6277492;22;20007;-79
2021/05/12 05:08:27;;;;;;;12.18;4.88;;;;;;;;;;6250703;22;20045;-79
2021/05/12 05:10:52;;;;;;;7.10;4.20;;;;;;;;;;6277657;22;19996;-79
2021/05/12 05:13:18;;;;;;;13.32;4.60;;;;;;;;;;6278274;22;20000;-80
2021/05/12 05:15:45;;;;;;;6.45;4.65;;;;;;;;;;6280344;22;20006;-79
2021/05/12 05:18:11;;;;;;;7.00;4.00;;;;;;;;;;6283269;22;20011;-81
2021/05/12 05:20:37;;;;;;;8.82;4.50;;;;;;;;;;6281669;22;20007;-81
2021/05/12 05:23:05;;;;;;;8.05;4.50;;;;;;;;;;6282302;22;20011;-81
2021/05/12 05:25:31;;;;;;;8.00;5.22;;;;;;;;;;6285350;22;20004;-81
2021/05/12 05:27:56;;;;;;;8.90;4.60;;;;;;;;;;6285549;22;20004;-81
2021/05/12 05:30:22;;;;;;;8.45;4.82;;;;;;;;;;6285326;22;20006;-81
2021/05/12 05:32:48;;;;;;;9.90;4.43;;;;;;;;;;6286103;22;20029;-81
2021/05/12 05:35:14;;;;;;;12.82;4.63;;;;;;;;;;6284910;22;20023;-81
2021/05/12 05:37:39;;;;;;;9.10;4.50;;;;;;;;;;6258064;22;20003;-80
2021/05/12 05:40:05;;;;;;;11.27;6.07;;;;;;;;;;6262650;22;20014;-80
2021/05/12 05:42:31;;;;;;;7.88;4.50;;;;;;;;;;6287762;22;19999;-80
2021/05/12 05:44:56;;;;;;;9.85;4.90;;;;;;;;;;6259214;22;20098;-81
2021/05/12 05:47:22;;;;;;;8.43;5.05;;;;;;;;;;6257259;22;20023;-82
2021/05/12 05:49:48;;;;;;;8.25;4.60;;;;;;;;;;6286428;22;19999;-81
2021/05/12 05:52:13;;;;;;;10.77;5.07;;;;;;;;;;6287841;22;20006;-81
2021/05/12 05:54:39;;;;;;;6.95;4.60;;;;;;;;;;6285991;22;20014;-81
2021/05/12 05:57:06;;;;;;;7.53;4.47;;;;;;;;;;6259297;22;20004;-80
2021/05/12 05:59:32;;;;;;;7.90;5.15;;;;;;;;;;6259156;22;20007;-81
2021/05/12 06:02:00;;;;;;;6.18;4.25;;;;;;;;;;6258961;22;20059;-81
2021/05/12 06:04:25;;;;;;;7.93;4.25;;;;;;;;;;6285377;22;20007;-80
2021/05/12 06:06:51;;;;;;;7.10;4.20;;;;;;;;;;6285469;22;20006;-81
2021/05/12 06:09:18;;;;;;;12.35;4.80;;;;;;;;;;6285680;22;20007;-81
2021/05/12 06:11:44;;;;;;;8.20;4.78;;;;;;;;;;6285356;22;20066;-81
2021/05/12 06:14:10;;;;;;;16.00;8.27;;;;;;;;;;6285575;22;19996;-81
2021/05/12 06:16:35;;;;;;;16.60;8.45;;;;;;;;;;6259081;22;20006;-81
2021/05/12 06:19:01;;;;;;;24.58;14.50;;;;;;;;;;6286470;22;19995;-80
2021/05/12 06:21:27;;;;;;;30.38;17.40;;;;;;;;;;6258150;22;20303;-81
2021/05/12 06:23:53;;;;;;;36.50;22.25;;;;;;;;;;6283833;22;20006;-82
2021/05/12 06:26:20;;;;;;;60.70;35.92;;;;;;;;;;6284928;22;20043;-81
2021/05/12 06:28:46;;;;;;;49.28;28.38;;;;;;;;;;6285891;22;20006;-81
2021/05/12 06:31:12;;;;;;;83.68;52.13;;;;;;;;;;6258554;22;20000;-81
2021/05/12 06:33:39;;;;;;;44.85;29.33;;;;;;;;;;6257844;22;20010;-81
2021/05/12 06:36:08;;;;;;;17.50;10.55;;;;;;;;;;6285521;22;20007;-81
2021/05/12 06:38:34;;;;;;;8.95;5.88;;;;;;;;;;6285830;22;20006;-81
2021/05/12 06:41:00;;;;;;;9.35;5.03;;;;;;;;;;6286091;22;20071;-80
2021/05/12 06:43:26;;;;;;;9.70;5.97;;;;;;;;;;6286051;22;20349;-81
2021/05/12 06:45:52;;;;;;;8.50;5.22;;;;;;;;;;6258369;22;20008;-82
2021/05/12 06:48:17;;;;;;;8.40;4.80;;;;;;;;;;6286039;22;19995;-81
2021/05/12 06:50:43;;;;;;;7.22;4.95;;;;;;;;;;6260191;22;20010;-81
2021/05/12 06:53:09;;;;;;;6.63;4.82;;;;;;;;;;6259683;22;20034;-81
2021/05/12 06:55:35;;;;;;;8.52;4.90;;;;;;;;;;6286758;22;20003;-81
2021/05/12 06:58:01;;;;;;;11.15;5.03;;;;;;;;;;6286847;22;20006;-81
2021/05/12 07:00:26;;;;;;;8.32;4.57;;;;;;;;;;6286337;22;19999;-81
2021/05/12 07:02:52;;;;;;;7.78;4.50;;;;;;;;;;6285594;22;20074;-81
2021/05/12 07:05:20;;;;;;;9.70;4.20;;;;;;;;;;6286967;22;20050;-81
2021/05/12 07:07:46;;;;;;;6.65;4.65;;;;;;;;;;6287091;22;19996;-81
2021/05/12 07:10:12;;;;;;;9.65;4.25;;;;;;;;;;6286484;22;19996;-81
2021/05/12 07:12:37;;;;;;;5.90;4.18;;;;;;;;;;6259338;22;20000;-80
2021/05/12 07:15:04;;;;;;;7.68;3.80;;;;;;;;;;6256320;22;20004;-80
2021/05/12 07:17:30;;;;;;;9.80;4.70;;;;;;;;;;6258987;22;20008;-79
2021/05/12 07:19:55;;;;;;;8.63;4.40;;;;;;;;;;6284135;22;20003;-79
2021/05/12 07:22:21;;;;;;;6.03;4.45;;;;;;;;;;6253945;22;20012;-79
2021/05/12 07:24:47;;;;;;;6.22;3.85;;;;;;;;;;6284687;22;20011;-80
2021/05/12 07:27:14;;;;;;;7.72;4.53;;;;;;;;;;6285852;22;20426;-80
2021/05/12 07:29:40;;;;;;;7.32;3.97;;;;;;;;;;6286902;22;20007;-80
2021/05/12 07:32:05;;;;;;;5.68;3.83;;;;;;;;;;6293665;22;20000;-79
2021/05/12 07:34:31;;;;;;;9.82;4.22;;;;;;;;;;6292145;22;20004;-79
2021/05/12 07:36:57;;;;;;;7.88;3.80;;;;;;;;;;6289994;22;20011;-79
2021/05/12 07:39:22;;;;;;;8.77;4.70;;;;;;;;;;6289779;22;20002;-79
2021/05/12 07:41:51;;;;;;;7.55;3.78;;;;;;;;;;6288783;22;20000;-79
2021/05/12 07:44:16;;;;;;;7.65;4.15;;;;;;;;;;6289006;22;20051;-79
2021/05/12 07:46:43;;;;;;;8.63;4.72;;;;;;;;;;6286734;22;20008;-79
2021/05/12 07:49:08;;;;;;;8.32;4.75;;;;;;;;;;6287599;22;20330;-78
2021/05/12 07:51:34;;;;;;;10.52;5.22;;;;;;;;;;6285809;22;20000;-80
2021/05/12 07:53:59;;;;;;;5.78;3.95;;;;;;;;;;6258369;22;20007;-80
2021/05/12 07:56:25;;;;;;;6.72;4.30;;;;;;;;;;6258610;22;20086;-80
2021/05/12 07:58:51;;;;;;;8.13;4.28;;;;;;;;;;6286646;22;20023;-79
2021/05/12 08:01:22;;;;;;;8.13;4.78;;;;;;;;;;6284339;22;19995;-77
2021/05/12 08:03:48;;;;;;;7.72;4.57;;;;;;;;;;6282435;22;20031;-79
2021/05/12 08:06:14;;;;;;;7.50;4.72;;;;;;;;;;6283981;22;20004;-80
2021/05/12 08:08:39;;;;;;;7.10;4.22;;;;;;;;;;6285109;22;20026;-80
2021/05/12 08:11:05;;;;;;;8.95;3.70;;;;;;;;;;6285334;22;19996;-80
2021/05/12 08:13:31;;;;;;;5.25;3.78;;;;;;;;;;6286339;22;20419;-79
2021/05/12 08:15:58;;;;;;;7.03;3.78;;;;;;;;;;6286311;22;20006;-80
2021/05/12 08:18:23;;;;;;;8.38;4.15;;;;;;;;;;6286362;22;20030;-80
2021/05/12 08:20:49;;;;;;;5.97;3.70;;;;;;;;;;6258627;22;20008;-79
2021/05/12 08:23:15;;;;;;;8.05;3.70;;;;;;;;;;6285932;22;20414;-79
2021/05/12 08:25:44;;;;;;;9.00;3.85;;;;;;;;;;6284744;22;20048;-80
2021/05/12 08:28:10;;;;;;;7.07;4.03;;;;;;;;;;6285139;22;19999;-79
2021/05/12 08:30:37;;;;;;;5.30;3.63;;;;;;;;;;6258487;22;20307;-80
2021/05/12 08:33:03;;;;;;;8.50;3.72;;;;;;;;;;6286444;22;20003;-80
2021/05/12 08:35:29;;;;;;;7.00;3.65;;;;;;;;;;6285609;22;20035;-80
2021/05/12 08:37:55;;;;;;;7.53;3.90;;;;;;;;;;6285388;22;20007;-80
2021/05/12 08:40:21;;;;;;;10.10;4.35;;;;;;;;;;6285663;22;20042;-79
2021/05/12 08:42:46;;;;;;;6.72;3.80;;;;;;;;;;6285334;22;20004;-79
2021/05/12 08:45:12;;;;;;;11.48;5.35;;;;;;;;;;6285351;22;20010;-80
2021/05/12 08:47:38;;;;;;;10.45;4.85;;;;;;;;;;6285341;22;20004;-80
2021/05/12 08:50:04;;;;;;;6.68;3.25;;;;;;;;;;6285909;22;19995;-80
2021/05/12 08:52:31;;;;;;;7.82;3.72;;;;;;;;;;6284777;22;20059;-79
2021/05/12 08:54:57;;;;;;;5.55;3.47;;;;;;;;;;6285205;22;20004;-80
2021/05/12 08:57:23;;;;;;;9.20;3.33;;;;;;;;;;6255882;22;20010;-78
2021/05/12 08:59:51;;;;;;;6.10;3.47;;;;;;;;;;6280512;22;19999;-79
2021/05/12 09:02:17;;;;;;;5.78;3.25;;;;;;;;;;6281292;22;20026;-79
2021/05/12 09:04:42;;;;;;;9.23;4.78;;;;;;;;;;6280447;22;20485;-80
2021/05/12 09:07:08;;;;;;;8.40;4.20;;;;;;;;;;6281275;22;20047;-79
2021/05/12 09:09:34;;;;;;;8.75;4.50;;;;;;;;;;6281000;22;20004;-79
2021/05/12 09:11:59;;;;;;;7.75;4.10;;;;;;;;;;6253849;22;20010;-80
2021/05/12 09:14:26;;;;;;;7.78;4.07;;;;;;;;;;6281707;22;20031;-80
2021/05/12 09:16:52;;;;;;;7.65;4.00;;;;;;;;;;6279302;22;20057;-80
2021/05/12 09:19:18;;;;;;;7.53;3.95;;;;;;;;;;6281537;22;20027;-81
2021/05/12 09:21:47;;;;;;;9.93;4.55;;;;;;;;;;6281279;22;20010;-80
2021/05/12 09:24:19;;;;;;;11.07;3.80;;;;;;;;;;6281687;22;20011;-79
2021/05/12 09:26:46;;;;;;;10.05;3.17;;;;;;;;;;6280877;22;20034;-80
2021/05/12 09:29:12;;;;;;;9.73;3.72;;;;;;;;;;6253393;22;20018;-80
2021/05/12 09:31:37;;;;;;;5.72;3.25;;;;;;;;;;6281069;22;20071;-79
2021/05/12 09:34:06;;;;;;;8.80;4.40;;;;;;;;;;6280700;22;20010;-80
2021/05/12 09:36:32;;;;;;;7.78;2.88;;;;;;;;;;6281790;22;20031;-80
2021/05/12 09:38:58;;;;;;;8.77;3.33;;;;;;;;;;6281563;22;20019;-80
2021/05/12 09:41:33;;;;;;;7.20;3.38;;;;;;;;;;6281397;22;20055;-79
2021/05/12 09:44:00;;;;;;;6.75;3.38;;;;;;;;;;6280825;22;20012;-79
2021/05/12 09:46:26;;;;;;;5.90;2.85;;;;;;;;;;6280685;22;20027;-82
2021/05/12 09:48:58;;;;;;;7.53;3.00;;;;;;;;;;6253715;22;20003;-81
2021/05/12 09:51:24;;;;;;;7.57;2.97;;;;;;;;;;6281680;22;20018;-81
2021/05/12 09:54:04;;;;;;;5.20;2.30;;;;;;;;;;6253368;22;19999;-79
2021/05/12 09:56:39;;;;;;;7.28;2.55;;;;;;;;;;6280681;22;20003;-79
2021/05/12 09:59:09;;;;;;;4.60;1.90;;;;;;;;;;6282092;22;19999;-79
2021/05/12 10:01:41;;;;;;;9.63;2.50;;;;;;;;;;6281751;22;20003;-80
2021/05/12 10:04:19;;;;;;;7.30;3.03;;;;;;;;;;6254650;22;20075;-81
2021/05/12 10:06:45;;;;;;;7.70;2.58;;;;;;;;;;6254468;22;20027;-80
2021/05/12 10:09:20;;;;;;;4.35;2.15;;;;;;;;;;6282000;22;20502;-80
2021/05/12 10:12:06;;;;;;;7.07;2.20;;;;;;;;;;6282037;22;20000;-81
2021/05/12 10:14:33;;;;;;;5.50;2.33;;;;;;;;;;6281031;22;20051;-80
2021/05/12 10:16:59;;;;;;;8.10;3.08;;;;;;;;;;6282204;22;20000;-81
2021/05/12 10:19:25;;;;;;;6.43;2.40;;;;;;;;;;6255495;22;20075;-81
2021/05/12 10:21:51;;;;;;;5.55;1.90;;;;;;;;;;6284387;22;20003;-82
2021/05/12 10:24:16;;;;;;;6.60;1.92;;;;;;;;;;6253691;22;20410;-78
2021/05/12 10:26:46;;;;;;;7.80;1.92;;;;;;;;;;6280482;22;20000;-79
2021/05/12 10:29:16;;;;;;;5.00;1.90;;;;;;;;;;6252608;22;20002;-80
2021/05/12 10:31:42;;;;;;;7.10;1.55;;;;;;;;;;6279901;22;20024;-80
2021/05/12 10:34:08;;;;;;;5.80;1.50;;;;;;;;;;6279692;22;20004;-81
2021/05/12 10:36:33;;;;;;;7.88;2.47;;;;;;;;;;6279379;22;20034;-80
2021/05/12 10:39:04;;;;;;;9.15;1.83;;;;;;;;;;6279682;22;20061;-80
2021/05/12 10:42:00;;;;;;;4.88;1.52;;;;;;;;;;6282845;22;19999;-81
2021/05/12 10:44:41;;;;;;;7.50;2.78;;;;;;;;;;6249079;22;20343;-81
2021/05/12 10:47:09;;;;;;;3.70;1.42;;;;;;;;;;6278632;22;20415;-80
2021/05/12 10:49:35;;;;;;;6.07;2.17;;;;;;;;;;6279797;22;19996;-81
2021/05/12 10:52:08;;;;;;;3.67;1.45;;;;;;;;;;6280000;22;20079;-80
2021/05/12 10:54:39;;;;;;;5.32;1.55;;;;;;;;;;6279712;22;19999;-81
2021/05/12 10:57:05;;;;;;;3.80;1.30;;;;;;;;;;6280683;22;20025;-81
2021/05/12 11:01:53;;;;;;;5.20;1.33;;;;;;;;;;5078404;28;20372;-81
2021/05/12 11:04:19;;;;;;;3.10;1.45;;;;;;;;;;5043547;28;20100;-81
2021/05/12 11:06:45;;;;;;;5.13;1.25;;;;;;;;;;5052631;28;20378;-83
2021/05/12 11:09:12;;;;;;;4.88;1.50;;;;;;;;;;5050172;28;20083;-80
2021/05/12 11:11:38;;;;;;;7.03;1.70;;;;;;;;;;5058822;28;20017;-81
2021/05/12 11:14:24;;;;;;;3.63;1.67;;;;;;;;;;5056001;28;20370;-79
2021/05/12 11:17:09;;;;;;;3.20;1.27;;;;;;;;;;5049092;28;20079;-83
2021/05/12 11:19:45;;;;;;;4.35;1.85;;;;;;;;;;5056104;28;20017;-82
2021/05/12 11:22:32;;;;;;;7.88;2.20;;;;;;;;;;5054300;28;20444;-82
2021/05/12 11:25:12;;;;;;;5.95;1.58;;;;;;;;;;5054066;28;20024;-81
2021/05/12 11:32:30;;;;;;;3.65;1.63;;;;;;;;;;5050477;28;20034;-81
2021/05/12 11:34:56;;;;;;;8.32;2.25;;;;;;;;;;5048594;28;20021;-82
2021/05/12 11:37:24;;;;;;;4.60;1.63;;;;;;;;;;5052507;28;20056;-82
2021/05/12 11:39:51;;;;;;;4.65;2.20;;;;;;;;;;5062249;28;20021;-82
2021/05/12 11:42:21;;;;;;;6.35;1.70;;;;;;;;;;5054518;28;20025;-81
2021/05/12 11:44:47;;;;;;;5.65;1.65;;;;;;;;;;5051221;28;20055;-81
2021/05/12 11:47:13;;;;;;;4.80;1.67;;;;;;;;;;5051467;28;20025;-82
2021/05/12 11:49:39;;;;;;;4.55;1.52;;;;;;;;;;5057086;28;20371;-80
2021/05/12 11:52:05;;;;;;;5.75;1.80;;;;;;;;;;5059102;28;20044;-82
2021/05/12 11:54:31;;;;;;;5.32;1.48;;;;;;;;;;5051724;28;20025;-82
2021/05/12 11:56:58;;;;;;;2.97;1.30;;;;;;;;;;5056282;28;20051;-81
2021/05/12 11:59:33;;;;;;;6.18;1.60;;;;;;;;;;5053237;28;20017;-81
2021/05/12 12:02:04;;;;;;;5.55;1.33;;;;;;;;;;5068176;28;20092;-79
2021/05/12 12:04:36;;;;;;;;;;;;;;;;;;5057420;28;20019;-82
2021/05/12 12:07:01;;;;;;;6.57;1.58;;;;;;;;;;5049434;28;19989;-81
2021/05/12 12:09:27;;;;;;;3.25;1.42;;;;;;;;;;5056283;28;20433;-80
2021/05/12 12:11:54;;;;;;;4.50;1.65;;;;;;;;;;5048523;28;20072;-81
2021/05/12 12:14:20;;;;;;;7.78;1.25;;;;;;;;;;5044094;28;20021;-81
2021/05/12 12:16:46;;;;;;;6.82;1.48;;;;;;;;;;5042018;28;20048;-81
2021/05/12 12:19:13;;;;;;;4.95;1.00;;;;;;;;;;5044941;28;20053;-81
2021/05/12 12:21:40;;;;;;;5.47;1.70;;;;;;;;;;5041600;28;20353;-81
2021/05/12 12:24:26;;;;;;;3.70;1.30;;;;;;;;;;5044116;28;20017;-81
2021/05/12 12:27:43;;;;;;;4.90;1.35;;;;;;;;;;5041422;28;20037;-80
2021/05/12 12:34:03;;;;;;;3.97;1.35;;;;;;;;;;5021163;28;20095;-81
2021/05/12 12:36:51;;;;;;;6.45;1.33;;;;;;;;;;5012348;28;20133;-82
2021/05/12 12:39:52;;;;;;;4.63;0.77;;;;;;;;;;5020799;28;20033;-81
2021/05/12 13:07:08;;;;;;;3.53;0.82;;;;;;;;;;5025915;28;20040;-80
2021/05/12 13:10:09;;;;;;;4.22;1.10;;;;;;;;;;5059917;28;20041;-80
2021/05/12 13:13:04;;;;;;;2.90;1.00;;;;;;;;;;5047191;28;20051;-80
2021/05/12 13:19:14;;;;;;;4.63;0.90;;;;;;;;;;5003356;28;20122;-81
2021/05/12 13:22:22;;;;;;;4.05;1.00;;;;;;;;;;4986812;28;20049;-81
2021/05/12 13:25:09;;;;;;;2.05;0.70;;;;;;;;;;5002941;28;20040;-81
2021/05/12 13:27:55;;;;;;;4.43;0.90;;;;;;;;;;5001123;28;20033;-80
2021/05/12 13:31:10;;;;;;;4.43;0.77;;;;;;;;;;4954502;29;20034;-81
2021/05/12 13:36:58;;;;;;;2.13;0.57;;;;;;;;;;4942813;29;20086;-80
2021/05/12 13:39:25;;;;;;;3.13;0.80;;;;;;;;;;4942857;28;20119;-81
2021/05/12 13:41:50;;;;;;;3.55;0.90;;;;;;;;;;4989958;28;20404;-81
2021/05/12 13:44:17;;;;;;;2.17;0.80;;;;;;;;;;5038440;28;20029;-82
2021/05/12 13:49:01;;;;;;;3.60;0.98;;;;;;;;;;5101726;27;20439;-82
2021/05/12 13:51:31;;;;;;;2.97;0.80;;;;;;;;;;5104024;28;20106;-82
2021/05/12 13:59:09;;;;;;;2.33;0.80;;;;;;;;;;5094681;28;20394;-81
2021/05/12 14:04:16;;;;;;;2.97;0.88;;;;;;;;;;5097545;28;20032;-83
2021/05/12 14:06:42;;;;;;;3.38;0.77;;;;;;;;;;5098445;28;20099;-83
2021/05/12 14:17:15;;;;;;;2.75;1.00;;;;;;;;;;5095924;28;20029;-82
2021/05/12 14:19:41;;;;;;;2.70;0.90;;;;;;;;;;5093934;28;20020;-80
2021/05/12 14:22:07;;;;;;;3.10;0.82;;;;;;;;;;5097280;28;20299;-82
2021/05/12 14:24:33;;;;;;;1.77;0.73;;;;;;;;;;5099489;28;20430;-82
2021/05/12 14:27:00;;;;;;;5.82;1.33;;;;;;;;;;5097957;28;20050;-81
2021/05/12 14:29:31;;;;;;;4.20;0.85;;;;;;;;;;5105392;28;20015;-82
2021/05/12 14:31:58;;;;;;;2.72;0.80;;;;;;;;;;5099595;28;20098;-82
2021/05/12 14:34:23;;;;;;;3.42;1.02;;;;;;;;;;5100443;28;20467;-82
2021/05/12 14:36:50;;;;;;;4.07;1.27;;;;;;;;;;5103432;28;20477;-82
2021/05/12 14:39:17;;;;;;;2.70;1.05;;;;;;;;;;5098332;28;20023;-82
2021/05/12 14:41:42;;;;;;;3.85;1.20;;;;;;;;;;5103079;28;20016;-82
2021/05/12 14:44:08;;;;;;;2.88;0.90;;;;;;;;;;5101861;28;20087;-81
2021/05/12 14:46:34;;;;;;;3.45;1.35;;;;;;;;;;5110119;28;20510;-81
2021/05/12 14:48:59;;;;;;;3.35;0.90;;;;;;;;;;5104070;28;20063;-81
2021/05/12 14:51:27;;;;;;;3.35;1.27;;;;;;;;;;5111303;28;20095;-82
2021/05/12 14:54:00;;;;;;;3.72;1.30;;;;;;;;;;5099631;28;20074;-81
2021/05/12 14:56:36;;;;;;;2.40;0.90;;;;;;;;;;5109063;28;20043;-81
2021/05/12 14:59:43;;;;;;;3.22;1.05;;;;;;;;;;5096104;28;20088;-81
2021/05/12 15:06:54;;;;;;;5.28;1.15;;;;;;;;;;5080266;28;20038;-82
2021/05/12 15:09:21;;;;;;;5.53;1.25;;;;;;;;;;5085297;28;20087;-83
2021/05/12 15:11:48;;;;;;;2.92;1.00;;;;;;;;;;5080656;28;20016;-83
2021/05/12 15:14:14;;;;;;;4.00;1.17;;;;;;;;;;5079821;28;20031;-84
2021/05/12 15:16:39;;;;;;;7.10;1.35;;;;;;;;;;5090202;28;20016;-82
2021/05/12 15:19:05;;;;;;;2.67;0.90;;;;;;;;;;5083681;28;20040;-85
2021/05/12 15:21:31;;;;;;;2.05;1.05;;;;;;;;;;5082246;28;20078;-80
2021/05/12 15:23:57;;;;;;;3.42;0.95;;;;;;;;;;5077289;28;20408;-80
2021/05/12 15:26:23;;;;;;;3.92;0.85;;;;;;;;;;5082490;28;20026;-80
2021/05/12 15:28:48;;;;;;;4.53;1.52;;;;;;;;;;5081269;28;20024;-81
2021/05/12 15:31:14;;;;;;;3.45;1.33;;;;;;;;;;5080779;28;20130;-80
2021/05/12 15:33:40;;;;;;;4.22;1.45;;;;;;;;;;5083919;28;20028;-80
2021/05/12 15:36:06;;;;;;;3.33;1.27;;;;;;;;;;5087092;28;21526;-80
2021/05/12 15:38:32;;;;;;;4.60;1.25;;;;;;;;;;5076487;28;20035;-81
2021/05/12 15:40:57;;;;;;;4.15;1.15;;;;;;;;;;5075230;28;20082;-79
2021/05/12 15:43:23;;;;;;;5.55;1.38;;;;;;;;;;5073688;28;20032;-80
2021/05/12 15:45:49;;;;;;;7.38;1.55;;;;;;;;;;5074477;28;20050;-80
2021/05/12 15:48:16;;;;;;;4.47;1.25;;;;;;;;;;5078887;28;20059;-80
2021/05/12 15:50:42;;;;;;;4.03;1.73;;;;;;;;;;5077212;28;20037;-79
2021/05/12 15:53:08;;;;;;;4.97;1.35;;;;;;;;;;5075791;28;20082;-80
2021/05/12 15:55:35;;;;;;;6.32;1.90;;;;;;;;;;5080576;28;20028;-80
2021/05/12 15:58:01;;;;;;;4.07;1.63;;;;;;;;;;5075885;28;20036;-81
2021/05/12 16:00:27;;;;;;;6.25;1.88;;;;;;;;;;5073268;28;20440;-80
2021/05/12 16:02:56;;;;;;;4.57;1.00;;;;;;;;;;5075608;28;20036;-80
2021/05/12 16:05:22;;;;;;;2.88;0.93;;;;;;;;;;5074142;28;20028;-79
2021/05/12 16:07:48;;;;;;;7.40;1.92;;;;;;;;;;5087281;28;20031;-80
2021/05/12 16:10:14;;;;;;;3.72;1.27;;;;;;;;;;5081996;28;20847;-80
2021/05/12 16:12:40;;;;;;;8.63;1.20;;;;;;;;;;5082671;28;20099;-80
2021/05/12 16:15:07;;;;;;;3.15;1.10;;;;;;;;;;5081813;28;20655;-80
2021/05/12 16:17:32;;;;;;;3.72;1.13;;;;;;;;;;5075029;28;20016;-79
2021/05/12 16:19:58;;;;;;;3.20;1.35;;;;;;;;;;5076778;28;20127;-80
2021/05/12 16:22:24;;;;;;;3.10;1.05;;;;;;;;;;5079388;28;20090;-80
2021/05/12 16:24:52;;;;;;;6.03;1.70;;;;;;;;;;5081368;28;20024;-80
2021/05/12 16:27:18;;;;;;;7.25;1.52;;;;;;;;;;5077284;28;20017;-80
2021/05/12 16:29:44;;;;;;;7.57;1.75;;;;;;;;;;5080185;28;20051;-80
2021/05/12 16:32:10;;;;;;;6.07;1.77;;;;;;;;;;5078986;28;20393;-80
2021/05/12 16:34:35;;;;;;;5.03;1.10;;;;;;;;;;5083651;28;20059;-80
2021/05/12 16:37:01;;;;;;;6.50;1.65;;;;;;;;;;5076639;28;20025;-80
2021/05/12 16:39:29;;;;;;;8.95;1.27;;;;;;;;;;5083299;28;20462;-79
2021/05/12 16:41:54;;;;;;;4.88;1.15;;;;;;;;;;5073232;28;20119;-80
2021/05/12 16:44:20;;;;;;;2.50;0.93;;;;;;;;;;5080463;28;20008;-80
2021/05/12 16:46:46;;;;;;;5.57;1.42;;;;;;;;;;5082019;28;20107;-80
2021/05/12 16:49:12;;;;;;;3.25;1.02;;;;;;;;;;5079389;28;20035;-80
2021/05/12 16:51:38;;;;;;;5.18;1.55;;;;;;;;;;5079575;28;20031;-81
2021/05/12 16:54:04;;;;;;;4.57;1.17;;;;;;;;;;5081132;28;20016;-80
2021/05/12 16:56:30;;;;;;;4.13;1.40;;;;;;;;;;5075007;28;20017;-80
2021/05/12 16:58:56;;;;;;;3.15;1.23;;;;;;;;;;5071084;28;20594;-80
2021/05/12 17:01:22;;;;;;;6.22;1.48;;;;;;;;;;5078858;28;20056;-80
2021/05/12 17:03:50;;;;;;;3.95;1.25;;;;;;;;;;5080636;28;20028;-79
2021/05/12 17:06:16;;;;;;;3.88;1.33;;;;;;;;;;5076736;28;20040;-80
2021/05/12 17:08:41;;;;;;;7.20;3.20;;;;;;;;;;5081354;28;20451;-79
2021/05/12 17:11:10;;;;;;;4.93;2.05;;;;;;;;;;5079312;28;20048;-79
2021/05/12 17:13:36;;;;;;;8.68;3.13;;;;;;;;;;5080514;28;20012;-79
2021/05/12 17:16:03;;;;;;;12.25;4.03;;;;;;;;;;5083116;28;20024;-79
2021/05/12 17:18:29;;;;;;;8.52;4.50;;;;;;;;;;5088653;28;20020;-79
2021/05/12 17:20:55;;;;;;;9.93;4.60;;;;;;;;;;5081085;28;20035;-80
2021/05/12 17:23:20;;;;;;;7.00;2.83;;;;;;;;;;5079794;28;20024;-80
2021/05/12 17:25:48;;;;;;;7.38;1.73;;;;;;;;;;5076334;28;20015;-80
2021/05/12 17:28:14;;;;;;;5.93;1.67;;;;;;;;;;5073064;28;20050;-79
2021/05/12 17:30:39;;;;;;;5.80;2.25;;;;;;;;;;5075938;28;20028;-80
2021/05/12 17:33:05;;;;;;;3.78;1.30;;;;;;;;;;5083893;28;20016;-79
2021/05/12 17:35:31;;;;;;;4.53;1.40;;;;;;;;;;5079569;28;20076;-80
2021/05/12 17:37:58;;;;;;;3.88;1.40;;;;;;;;;;5092009;28;20020;-82
2021/05/12 17:40:26;;;;;;;3.08;1.08;;;;;;;;;;5084020;28;20028;-83
2021/05/12 17:42:52;;;;;;;4.63;1.10;;;;;;;;;;5090242;28;20025;-82
2021/05/12 17:45:17;;;;;;;4.20;1.40;;;;;;;;;;5083074;28;20034;-78
2021/05/12 17:47:43;;;;;;;6.03;3.78;;;;;;;;;;5095998;28;20088;-79
2021/05/12 17:50:09;;;;;;;6.00;2.70;;;;;;;;;;5098696;28;20020;-80
2021/05/12 17:52:37;;;;;;;15.10;9.38;;;;;;;;;;5097681;28;20676;-80
2021/05/12 17:55:03;;;;;;;8.07;4.30;;;;;;;;;;5101954;28;20092;-79
2021/05/12 17:57:29;;;;;;;6.85;2.90;;;;;;;;;;5100196;28;20035;-79
2021/05/12 17:59:55;;;;;;;8.27;2.00;;;;;;;;;;5093070;28;20024;-79
2021/05/12 18:02:20;;;;;;;7.43;2.30;;;;;;;;;;5102247;28;20582;-80
2021/05/12 18:04:46;;;;;;;10.80;2.25;;;;;;;;;;5090671;28;20778;-80
2021/05/12 18:07:12;;;;;;;14.40;7.05;;;;;;;;;;5092492;28;20173;-79
2021/05/12 18:09:38;;;;;;;10.40;3.65;;;;;;;;;;5099816;28;20026;-80
2021/05/12 18:17:53;;;;;;;6.72;2.00;;;;;;;;;;5030927;28;20043;-81
2021/05/12 18:20:19;;;;;;;5.57;1.13;;;;;;;;;;5060698;28;20040;-80
2021/05/12 18:22:44;;;;;;;3.80;1.10;;;;;;;;;;5071342;28;20016;-80
2021/05/12 18:25:10;;;;;;;5.68;1.52;;;;;;;;;;5076501;28;20020;-79
2021/05/12 18:27:36;;;;;;;4.00;1.20;;;;;;;;;;5079426;28;20017;-79
2021/05/12 18:30:01;;;;;;;2.47;1.15;;;;;;;;;;5078779;28;20032;-79
2021/05/12 18:32:27;;;;;;;2.53;0.95;;;;;;;;;;5071924;28;20016;-80
2021/05/12 18:34:58;;;;;;;3.35;1.30;;;;;;;;;;5083127;28;20030;-80
2021/05/12 18:40:00;;;;;;;7.78;1.80;;;;;;;;;;5083545;28;20270;-80
2021/05/12 18:42:27;;;;;;;2.88;1.65;;;;;;;;;;5077601;28;20492;-80
2021/05/12 18:45:00;;;;;;;3.08;1.25;;;;;;;;;;5086289;28;20033;-78
2021/05/12 18:47:27;;;;;;;6.53;2.00;;;;;;;;;;5078819;28;20128;-80
2021/05/12 18:49:53;;;;;;;5.90;1.40;;;;;;;;;;5075731;28;20048;-80
2021/05/12 18:52:19;;;;;;;4.20;1.42;;;;;;;;;;5081630;28;20020;-79
2021/05/12 18:54:45;;;;;;;3.10;1.05;;;;;;;;;;5079070;28;20020;-80
2021/05/12 18:57:10;;;;;;;3.85;1.23;;;;;;;;;;5075010;28;20127;-80
2021/05/12 18:59:36;;;;;;;4.03;1.48;;;;;;;;;;5071645;28;20438;-79
2021/05/12 19:02:04;;;;;;;9.15;1.70;;;;;;;;;;5076368;28;20036;-80
2021/05/12 19:04:31;;;;;;;6.55;1.30;;;;;;;;;;5077247;28;20028;-80
2021/05/12 19:07:06;;;;;;;5.22;1.10;;;;;;;;;;5070785;28;20033;-79
2021/05/12 19:12:12;;;;;;;4.32;1.80;;;;;;;;;;5075575;28;20193;-80
2021/05/12 19:14:48;;;;;;;3.55;1.67;;;;;;;;;;5071286;28;20016;-80
2021/05/12 19:17:13;;;;;;;4.55;1.80;;;;;;;;;;5077358;28;20647;-80
2021/05/12 19:22:29;;;;;;;3.88;2.42;;;;;;;;;;5078837;28;20059;-79
2021/05/12 19:27:40;;;;;;;7.05;2.88;;;;;;;;;;5082701;28;20029;-80
2021/05/12 19:43:24;;;;;;;4.28;1.88;;;;;;;;;;5086252;28;20032;-79
2021/05/12 19:45:50;;;;;;;4.30;2.20;;;;;;;;;;5075161;28;20025;-80
2021/05/12 19:48:16;;;;;;;4.57;1.90;;;;;;;;;;5075040;28;20149;-80
2021/05/12 19:50:42;;;;;;;4.28;1.90;;;;;;;;;;5079124;28;20523;-79
2021/05/12 19:53:08;;;;;;;3.92;1.63;;;;;;;;;;5078263;28;20073;-80
2021/05/12 19:58:11;;;;;;;4.45;2.03;;;;;;;;;;5077333;28;20503;-80
2021/05/12 20:00:39;;;;;;;5.75;1.80;;;;;;;;;;5075143;28;20035;-80
2021/05/12 20:03:05;;;;;;;5.90;1.50;;;;;;;;;;5083646;28;20024;-79
2021/05/12 20:05:38;;;;;;;8.55;1.80;;;;;;;;;;5073228;28;20078;-80
2021/05/12 20:13:15;;;;;;;6.15;2.03;;;;;;;;;;5074123;28;20066;-80
2021/05/12 20:15:41;;;;;;;7.18;4.70;;;;;;;;;;5083656;28;20135;-79
2021/05/12 20:18:07;;;;;;;3.35;1.95;;;;;;;;;;5073456;28;20116;-80
2021/05/12 20:20:33;;;;;;;5.53;1.70;;;;;;;;;;5073598;28;20107;-80
2021/05/12 20:22:59;;;;;;;3.60;1.85;;;;;;;;;;5081160;28;20016;-79
2021/05/12 20:25:25;;;;;;;7.43;2.28;;;;;;;;;;5071329;28;20051;-80
2021/05/12 20:27:51;;;;;;;5.85;2.03;;;;;;;;;;5073530;28;20477;-80
2021/05/12 20:30:18;;;;;;;3.22;1.40;;;;;;;;;;5082871;28;20028;-80
2021/05/12 20:38:00;;;;;;;6.95;1.92;;;;;;;;;;5087596;28;20044;-80
2021/05/12 20:40:27;;;;;;;4.35;1.63;;;;;;;;;;5075009;28;20103;-80
2021/05/12 20:42:53;;;;;;;6.25;1.83;;;;;;;;;;5086277;28;20031;-80
2021/05/12 20:45:20;;;;;;;6.45;1.33;;;;;;;;;;5081965;28;20052;-79
2021/05/12 20:47:45;;;;;;;3.88;1.48;;;;;;;;;;5083837;28;20028;-79
2021/05/12 20:50:12;;;;;;;4.30;1.73;;;;;;;;;;5076241;28;20028;-80
2021/05/12 20:52:37;;;;;;;3.28;1.50;;;;;;;;;;5085548;28;20055;-80
2021/05/12 20:55:04;;;;;;;5.72;1.70;;;;;;;;;;5080821;28;20028;-79
2021/05/12 20:57:29;;;;;;;2.90;1.35;;;;;;;;;;5075679;28;20059;-80
2021/05/12 20:59:55;;;;;;;4.32;1.33;;;;;;;;;;5080370;28;20020;-79
2021/05/12 21:02:21;;;;;;;3.42;1.67;;;;;;;;;;5078996;28;20099;-79
2021/05/12 21:04:46;;;;;;;4.50;1.60;;;;;;;;;;5076389;28;20024;-80
2021/05/12 21:07:12;;;;;;;3.88;2.08;;;;;;;;;;5089162;28;20020;-79
2021/05/12 21:09:38;;;;;;;5.65;1.88;;;;;;;;;;5078674;28;20070;-79
2021/05/12 21:12:04;;;;;;;3.42;1.60;;;;;;;;;;5080675;28;20111;-79
2021/05/12 21:14:29;;;;;;;8.50;1.80;;;;;;;;;;5081574;28;20025;-79
2021/05/12 21:16:55;;;;;;;5.22;1.95;;;;;;;;;;5076114;28;20020;-79
2021/05/12 21:19:20;;;;;;;7.40;2.58;;;;;;;;;;5075781;28;20096;-79